sensor_id;sensor_type;location;lat;lon;timestamp;pressure;altitude;pressure_sealevel;temperature;humidity
71476;BME280;59286;59.274;17.974;2022-09-21T00:02:01;101928.03;;;4.92;86.62
71476;BME280;59286;59.274;17.974;2022-09-21T00:04:26;101939.41;;;4.91;87.52
71476;BME280;59286;59.274;17.974;2022-09-21T00:06:52;101936.81;;;4.91;87.07
71476;BME280;59286;59.274;17.974;2022-09-21T00:09:17;101891.06;;;4.67;86.99
71476;BME280;59286;59.274;17.974;2022-09-21T00:11:43;101925.41;;;4.80;86.93
71476;BME280;59286;59.274;17.974;2022-09-21T00:14:11;101941.78;;;4.81;87.60
71476;BME280;59286;59.274;17.974;2022-09-21T00:16:41;101896.44;;;4.54;87.12
71476;BME280;59286;59.274;17.974;2022-09-21T00:19:08;101936.44;;;4.76;86.40
71476;BME280;59286;59.274;17.974;2022-09-21T00:21:34;101925.84;;;4.66;86.61
71476;BME280;59286;59.274;17.974;2022-09-21T00:24:00;101946.16;;;4.69;87.55
71476;BME280;59286;59.274;17.974;2022-09-21T00:26:27;101923.19;;;4.54;87.54
71476;BME280;59286;59.274;17.974;2022-09-21T00:28:54;101917.66;;;4.51;87.12
71476;BME280;59286;59.274;17.974;2022-09-21T00:31:20;101944.31;;;4.58;86.99
71476;BME280;59286;59.274;17.974;2022-09-21T00:33:46;101950.78;;;4.67;87.11
71476;BME280;59286;59.274;17.974;2022-09-21T00:36:14;101939.47;;;4.61;87.67
71476;BME280;59286;59.274;17.974;2022-09-21T00:38:44;101938.09;;;4.47;88.14
71476;BME280;59286;59.274;17.974;2022-09-21T00:41:11;101954.13;;;4.56;87.69
71476;BME280;59286;59.274;17.974;2022-09-21T00:43:43;101905.91;;;4.19;87.13
71476;BME280;59286;59.274;17.974;2022-09-21T00:46:28;101944.56;;;4.38;86.74
71476;BME280;59286;59.274;17.974;2022-09-21T00:48:54;101953.72;;;4.41;86.99
71476;BME280;59286;59.274;17.974;2022-09-21T00:51:20;101957.94;;;4.42;85.98
71476;BME280;59286;59.274;17.974;2022-09-21T00:53:47;101926.09;;;4.17;85.65
71476;BME280;59286;59.274;17.974;2022-09-21T00:56:16;101907.47;;;4.08;85.67
71476;BME280;59286;59.274;17.974;2022-09-21T00:58:46;101925.41;;;4.10;85.79
71476;BME280;59286;59.274;17.974;2022-09-21T01:01:14;101939.78;;;4.24;85.98
71476;BME280;59286;59.274;17.974;2022-09-21T01:03:40;101927.31;;;4.14;86.08
71476;BME280;59286;59.274;17.974;2022-09-21T01:06:14;101957.66;;;4.32;86.81
71476;BME280;59286;59.274;17.974;2022-09-21T01:08:41;101934.81;;;4.22;86.70
71476;BME280;59286;59.274;17.974;2022-09-21T01:11:19;101954.59;;;4.35;87.67
71476;BME280;59286;59.274;17.974;2022-09-21T01:17:04;101968.50;;;4.40;87.37
71476;BME280;59286;59.274;17.974;2022-09-21T01:22:48;101959.03;;;4.34;87.82
71476;BME280;59286;59.274;17.974;2022-09-21T01:31:03;101964.00;;;4.36;89.10
71476;BME280;59286;59.274;17.974;2022-09-21T01:33:35;101910.34;;;4.00;88.60
71476;BME280;59286;59.274;17.974;2022-09-21T01:36:08;101954.94;;;4.27;88.58
71476;BME280;59286;59.274;17.974;2022-09-21T01:38:46;101957.53;;;4.27;88.88
71476;BME280;59286;59.274;17.974;2022-09-21T01:41:15;101976.09;;;4.42;87.79
71476;BME280;59286;59.274;17.974;2022-09-21T01:43:46;101972.19;;;4.33;86.76
71476;BME280;59286;59.274;17.974;2022-09-21T01:46:19;101975.72;;;4.38;86.70
71476;BME280;59286;59.274;17.974;2022-09-21T01:48:48;101972.19;;;4.33;87.06
71476;BME280;59286;59.274;17.974;2022-09-21T01:51:15;101951.03;;;4.00;87.09
71476;BME280;59286;59.274;17.974;2022-09-21T01:53:46;101944.44;;;3.85;87.51
71476;BME280;59286;59.274;17.974;2022-09-21T01:56:36;101984.94;;;4.05;87.66
71476;BME280;59286;59.274;17.974;2022-09-21T01:59:29;101986.16;;;4.02;88.32
71476;BME280;59286;59.274;17.974;2022-09-21T02:02:05;101984.94;;;4.05;87.57
71476;BME280;59286;59.274;17.974;2022-09-21T02:04:34;101969.78;;;4.02;87.74
71476;BME280;59286;59.274;17.974;2022-09-21T02:07:00;101987.31;;;4.06;89.78
71476;BME280;59286;59.274;17.974;2022-09-21T02:09:25;101990.47;;;4.08;89.79
71476;BME280;59286;59.274;17.974;2022-09-21T02:11:51;101993.34;;;4.18;89.56
71476;BME280;59286;59.274;17.974;2022-09-21T02:14:22;101974.47;;;4.11;88.93
71476;BME280;59286;59.274;17.974;2022-09-21T02:19:48;101980.44;;;4.12;88.99
71476;BME280;59286;59.274;17.974;2022-09-21T02:22:26;101979.38;;;4.19;89.80
71476;BME280;59286;59.274;17.974;2022-09-21T02:28:05;101986.19;;;4.32;88.03
71476;BME280;59286;59.274;17.974;2022-09-21T02:30:33;101994.56;;;4.34;88.07
71476;BME280;59286;59.274;17.974;2022-09-21T02:33:09;101965.59;;;4.19;88.15
71476;BME280;59286;59.274;17.974;2022-09-21T02:35:47;102000.69;;;4.39;88.57
71476;BME280;59286;59.274;17.974;2022-09-21T02:38:21;101985.56;;;4.36;88.33
71476;BME280;59286;59.274;17.974;2022-09-21T02:46:25;101998.63;;;4.59;88.80
71476;BME280;59286;59.274;17.974;2022-09-21T02:48:58;101993.25;;;4.72;88.72
71476;BME280;59286;59.274;17.974;2022-09-21T02:51:35;101990.69;;;4.84;90.22
71476;BME280;59286;59.274;17.974;2022-09-21T02:54:05;101972.19;;;4.92;89.03
71476;BME280;59286;59.274;17.974;2022-09-21T02:56:32;101997.44;;;5.15;88.61
71476;BME280;59286;59.274;17.974;2022-09-21T02:59:00;101993.47;;;5.12;87.76
71476;BME280;59286;59.274;17.974;2022-09-21T03:01:27;101987.59;;;5.05;86.72
71476;BME280;59286;59.274;17.974;2022-09-21T03:03:53;102002.97;;;5.18;86.88
71476;BME280;59286;59.274;17.974;2022-09-21T03:06:18;102006.84;;;5.27;86.54
71476;BME280;59286;59.274;17.974;2022-09-21T03:08:44;102008.97;;;5.30;87.13
71476;BME280;59286;59.274;17.974;2022-09-21T03:11:09;101994.50;;;5.23;87.23
71476;BME280;59286;59.274;17.974;2022-09-21T03:13:35;102011.81;;;5.40;87.32
71476;BME280;59286;59.274;17.974;2022-09-21T03:16:04;101999.13;;;5.32;87.58
71476;BME280;59286;59.274;17.974;2022-09-21T03:18:30;101997.00;;;5.41;87.64
71476;BME280;59286;59.274;17.974;2022-09-21T03:20:55;101986.94;;;5.33;87.44
71476;BME280;59286;59.274;17.974;2022-09-21T03:23:21;102008.53;;;5.56;87.39
71476;BME280;59286;59.274;17.974;2022-09-21T03:25:47;101990.13;;;5.35;87.42
71476;BME280;59286;59.274;17.974;2022-09-21T03:28:13;101979.72;;;5.35;87.07
71476;BME280;59286;59.274;17.974;2022-09-21T03:30:39;102006.50;;;5.47;87.47
71476;BME280;59286;59.274;17.974;2022-09-21T03:33:05;102019.97;;;5.55;87.53
71476;BME280;59286;59.274;17.974;2022-09-21T03:35:31;102020.06;;;5.60;87.49
71476;BME280;59286;59.274;17.974;2022-09-21T03:37:58;101993.25;;;5.48;87.44
71476;BME280;59286;59.274;17.974;2022-09-21T03:40:23;102026.19;;;5.66;88.04
71476;BME280;59286;59.274;17.974;2022-09-21T03:42:50;102019.84;;;5.62;87.86
71476;BME280;59286;59.274;17.974;2022-09-21T03:45:15;101993.84;;;5.50;88.23
71476;BME280;59286;59.274;17.974;2022-09-21T03:47:41;101974.97;;;5.43;88.04
71476;BME280;59286;59.274;17.974;2022-09-21T03:50:08;102023.59;;;5.77;87.48
71476;BME280;59286;59.274;17.974;2022-09-21T03:52:34;101978.69;;;5.47;87.59
71476;BME280;59286;59.274;17.974;2022-09-21T03:55:02;102025.38;;;5.77;87.91
71476;BME280;59286;59.274;17.974;2022-09-21T03:57:34;101976.19;;;5.52;87.63
71476;BME280;59286;59.274;17.974;2022-09-21T04:00:00;102010.69;;;5.82;87.64
71476;BME280;59286;59.274;17.974;2022-09-21T04:02:27;102019.09;;;5.84;87.59
71476;BME280;59286;59.274;17.974;2022-09-21T04:04:52;102028.59;;;5.91;87.97
71476;BME280;59286;59.274;17.974;2022-09-21T04:07:18;102013.06;;;5.84;87.39
71476;BME280;59286;59.274;17.974;2022-09-21T04:09:43;102014.09;;;5.95;87.25
71476;BME280;59286;59.274;17.974;2022-09-21T04:12:08;102032.66;;;6.10;86.77
71476;BME280;59286;59.274;17.974;2022-09-21T04:14:34;102016.13;;;6.04;86.91
71476;BME280;59286;59.274;17.974;2022-09-21T04:16:59;102017.47;;;6.07;86.69
71476;BME280;59286;59.274;17.974;2022-09-21T04:19:24;102026.97;;;6.13;86.77
71476;BME280;59286;59.274;17.974;2022-09-21T04:21:50;102012.25;;;6.07;86.58
71476;BME280;59286;59.274;17.974;2022-09-21T04:24:20;102029.66;;;6.18;86.85
71476;BME280;59286;59.274;17.974;2022-09-21T04:26:46;102019.16;;;6.13;87.41
71476;BME280;59286;59.274;17.974;2022-09-21T04:29:13;102026.94;;;6.24;86.64
71476;BME280;59286;59.274;17.974;2022-09-21T04:31:38;101995.97;;;6.00;87.43
71476;BME280;59286;59.274;17.974;2022-09-21T04:34:04;102003.78;;;6.11;87.01
71476;BME280;59286;59.274;17.974;2022-09-21T04:36:29;102015.66;;;6.19;86.53
71476;BME280;59286;59.274;17.974;2022-09-21T04:38:56;101998.81;;;6.10;86.74
71476;BME280;59286;59.274;17.974;2022-09-21T04:41:22;101991.91;;;6.04;86.95
71476;BME280;59286;59.274;17.974;2022-09-21T04:43:48;102001.41;;;6.10;86.99
71476;BME280;59286;59.274;17.974;2022-09-21T04:46:16;102015.53;;;6.14;86.40
71476;BME280;59286;59.274;17.974;2022-09-21T04:48:42;102004.69;;;5.94;87.27
71476;BME280;59286;59.274;17.974;2022-09-21T04:51:09;102018.25;;;6.07;86.98
71476;BME280;59286;59.274;17.974;2022-09-21T04:53:37;102024.16;;;6.03;87.31
71476;BME280;59286;59.274;17.974;2022-09-21T04:56:05;102028.69;;;5.96;87.90
71476;BME280;59286;59.274;17.974;2022-09-21T04:58:31;102021.69;;;5.84;88.68
71476;BME280;59286;59.274;17.974;2022-09-21T05:00:57;102017.50;;;5.83;87.71
71476;BME280;59286;59.274;17.974;2022-09-21T05:03:23;102020.66;;;5.85;87.69
71476;BME280;59286;59.274;17.974;2022-09-21T05:05:51;102008.88;;;5.71;87.85
71476;BME280;59286;59.274;17.974;2022-09-21T05:08:17;102031.50;;;5.82;87.22
71476;BME280;59286;59.274;17.974;2022-09-21T05:11:06;102027.13;;;5.83;86.93
71476;BME280;59286;59.274;17.974;2022-09-21T05:13:32;102035.13;;;5.81;87.15
71476;BME280;59286;59.274;17.974;2022-09-21T05:15:58;102025.06;;;5.73;87.70
71476;BME280;59286;59.274;17.974;2022-09-21T05:18:23;102033.13;;;5.83;87.21
71476;BME280;59286;59.274;17.974;2022-09-21T05:20:56;102026.66;;;5.86;87.32
71476;BME280;59286;59.274;17.974;2022-09-21T05:23:22;101973.38;;;5.54;87.28
71476;BME280;59286;59.274;17.974;2022-09-21T05:25:49;102041.94;;;6.06;88.18
71476;BME280;59286;59.274;17.974;2022-09-21T05:28:16;102041.00;;;6.12;87.56
71476;BME280;59286;59.274;17.974;2022-09-21T05:33:28;102034.75;;;6.24;88.45
71476;BME280;59286;59.274;17.974;2022-09-21T05:36:22;102036.97;;;6.32;88.83
71476;BME280;59286;59.274;17.974;2022-09-21T05:38:51;102023.28;;;6.37;88.36
71476;BME280;59286;59.274;17.974;2022-09-21T05:41:17;102043.72;;;6.56;88.15
71476;BME280;59286;59.274;17.974;2022-09-21T05:43:43;102009.78;;;6.40;87.69
71476;BME280;59286;59.274;17.974;2022-09-21T05:49:05;102020.66;;;6.48;88.63
71476;BME280;59286;59.274;17.974;2022-09-21T05:59:46;102055.44;;;6.99;89.15
71476;BME280;59286;59.274;17.974;2022-09-21T06:04:49;102049.38;;;7.10;89.39
71476;BME280;59286;59.274;17.974;2022-09-21T06:07:15;102044.97;;;7.10;89.50
71476;BME280;59286;59.274;17.974;2022-09-21T06:09:41;102065.13;;;7.31;90.18
71476;BME280;59286;59.274;17.974;2022-09-21T06:12:07;102055.34;;;7.38;89.44
71476;BME280;59286;59.274;17.974;2022-09-21T06:14:35;102063.63;;;7.52;88.36
71476;BME280;59286;59.274;17.974;2022-09-21T06:17:01;102036.91;;;7.45;88.47
71476;BME280;59286;59.274;17.974;2022-09-21T06:19:26;102046.41;;;7.51;89.27
71476;BME280;59286;59.274;17.974;2022-09-21T06:21:52;102046.53;;;7.61;88.79
71476;BME280;59286;59.274;17.974;2022-09-21T06:24:17;102071.81;;;7.94;88.39
71476;BME280;59286;59.274;17.974;2022-09-21T06:26:43;102079.13;;;8.13;87.72
71476;BME280;59286;59.274;17.974;2022-09-21T06:29:08;102075.25;;;8.32;86.63
71476;BME280;59286;59.274;17.974;2022-09-21T06:31:33;102041.31;;;8.37;86.16
71476;BME280;59286;59.274;17.974;2022-09-21T06:33:59;102053.91;;;8.62;85.38
71476;BME280;59286;59.274;17.974;2022-09-21T06:36:24;102053.63;;;8.85;85.22
71476;BME280;59286;59.274;17.974;2022-09-21T06:38:50;102044.97;;;9.11;84.53
71476;BME280;59286;59.274;17.974;2022-09-21T06:41:15;102069.13;;;9.55;83.07
71476;BME280;59286;59.274;17.974;2022-09-21T06:43:40;102045.56;;;9.55;83.23
71476;BME280;59286;59.274;17.974;2022-09-21T06:46:06;102070.41;;;9.89;82.53
71476;BME280;59286;59.274;17.974;2022-09-21T06:48:34;102063.38;;;9.95;82.49
71476;BME280;59286;59.274;17.974;2022-09-21T06:51:01;102044.34;;;10.09;81.73
71476;BME280;59286;59.274;17.974;2022-09-21T06:53:28;102082.78;;;10.50;81.30
71476;BME280;59286;59.274;17.974;2022-09-21T06:55:59;102050.25;;;10.41;79.59
71476;BME280;59286;59.274;17.974;2022-09-21T06:58:24;102076.59;;;10.77;79.63
71476;BME280;59286;59.274;17.974;2022-09-21T07:00:50;102078.94;;;10.78;77.64
71476;BME280;59286;59.274;17.974;2022-09-21T07:03:15;102091.88;;;11.00;77.63
71476;BME280;59286;59.274;17.974;2022-09-21T07:05:44;102088.72;;;11.08;77.46
71476;BME280;59286;59.274;17.974;2022-09-21T07:08:10;102073.25;;;11.11;72.92
71476;BME280;59286;59.274;17.974;2022-09-21T07:10:35;102070.88;;;11.25;74.10
71476;BME280;59286;59.274;17.974;2022-09-21T07:13:02;102065.38;;;11.26;71.01
71476;BME280;59286;59.274;17.974;2022-09-21T07:15:29;102065.66;;;11.35;73.29
71476;BME280;59286;59.274;17.974;2022-09-21T07:17:55;102078.47;;;11.56;71.47
71476;BME280;59286;59.274;17.974;2022-09-21T07:20:20;102064.59;;;11.66;71.86
71476;BME280;59286;59.274;17.974;2022-09-21T07:22:46;102082.94;;;11.86;72.74
71476;BME280;59286;59.274;17.974;2022-09-21T07:25:11;102085.31;;;11.88;71.79
71476;BME280;59286;59.274;17.974;2022-09-21T07:27:37;102074.78;;;11.93;71.76
71476;BME280;59286;59.274;17.974;2022-09-21T07:30:04;102082.91;;;12.06;71.74
71476;BME280;59286;59.274;17.974;2022-09-21T07:32:30;102066.81;;;12.18;71.45
71476;BME280;59286;59.274;17.974;2022-09-21T07:34:56;102068.34;;;12.29;71.09
71476;BME280;59286;59.274;17.974;2022-09-21T07:37:26;102078.25;;;12.52;69.64
71476;BME280;59286;59.274;17.974;2022-09-21T07:39:52;102077.72;;;12.55;69.26
71476;BME280;59286;59.274;17.974;2022-09-21T07:42:18;102052.75;;;12.52;70.21
71476;BME280;59286;59.274;17.974;2022-09-21T07:44:46;102082.56;;;12.82;68.54
71476;BME280;59286;59.274;17.974;2022-09-21T07:47:12;102080.22;;;12.80;65.24
71476;BME280;59286;59.274;17.974;2022-09-21T07:49:39;102082.25;;;12.93;66.76
71476;BME280;59286;59.274;17.974;2022-09-21T07:52:05;102058.03;;;12.91;66.87
71476;BME280;59286;59.274;17.974;2022-09-21T07:54:31;102080.22;;;13.24;66.26
71476;BME280;59286;59.274;17.974;2022-09-21T07:56:58;102073.09;;;13.24;64.19
71476;BME280;59286;59.274;17.974;2022-09-21T07:59:42;102076.28;;;13.21;64.79
71476;BME280;59286;59.274;17.974;2022-09-21T08:02:07;102056.91;;;13.07;62.77
71476;BME280;59286;59.274;17.974;2022-09-21T08:04:32;102039.25;;;13.08;66.39
71476;BME280;59286;59.274;17.974;2022-09-21T08:06:58;102014.91;;;12.87;62.90
71476;BME280;59286;59.274;17.974;2022-09-21T08:09:23;102077.31;;;13.25;62.95
71476;BME280;59286;59.274;17.974;2022-09-21T08:11:49;102042.88;;;13.17;63.71
71476;BME280;59286;59.274;17.974;2022-09-21T08:14:16;102070.31;;;13.44;64.54
71476;BME280;59286;59.274;17.974;2022-09-21T08:16:45;102080.44;;;13.61;62.56
71476;BME280;59286;59.274;17.974;2022-09-21T08:19:13;102073.53;;;13.65;62.17
71476;BME280;59286;59.274;17.974;2022-09-21T08:21:39;102074.44;;;13.50;60.43
71476;BME280;59286;59.274;17.974;2022-09-21T08:24:05;102069.19;;;13.50;61.27
71476;BME280;59286;59.274;17.974;2022-09-21T08:26:31;102063.88;;;13.55;63.09
71476;BME280;59286;59.274;17.974;2022-09-21T08:28:57;102074.03;;;13.67;63.87
71476;BME280;59286;59.274;17.974;2022-09-21T08:31:23;102053.25;;;13.66;62.69
71476;BME280;59286;59.274;17.974;2022-09-21T08:33:50;102068.00;;;13.90;62.41
71476;BME280;59286;59.274;17.974;2022-09-21T08:36:17;102042.59;;;13.76;63.95
71476;BME280;59286;59.274;17.974;2022-09-21T08:38:43;102044.91;;;13.82;61.64
71476;BME280;59286;59.274;17.974;2022-09-21T08:41:18;102072.19;;;13.96;61.53
71476;BME280;59286;59.274;17.974;2022-09-21T08:43:57;102061.94;;;13.90;60.98
71476;BME280;59286;59.274;17.974;2022-09-21T08:46:27;102055.91;;;13.89;63.08
71476;BME280;59286;59.274;17.974;2022-09-21T08:48:57;102063.59;;;14.09;61.18
71476;BME280;59286;59.274;17.974;2022-09-21T08:51:27;102069.59;;;14.15;61.37
71476;BME280;59286;59.274;17.974;2022-09-21T08:54:06;102069.63;;;14.10;59.98
71476;BME280;59286;59.274;17.974;2022-09-21T08:56:36;102074.06;;;14.14;61.14
71476;BME280;59286;59.274;17.974;2022-09-21T08:59:01;102077.81;;;14.08;60.35
71476;BME280;59286;59.274;17.974;2022-09-21T09:04:19;102082.50;;;13.93;57.02
71476;BME280;59286;59.274;17.974;2022-09-21T09:07:01;102074.25;;;13.71;58.69
71476;BME280;59286;59.274;17.974;2022-09-21T09:15:38;102072.44;;;13.09;60.69
71476;BME280;59286;59.274;17.974;2022-09-21T09:18:20;102083.50;;;13.39;59.44
71476;BME280;59286;59.274;17.974;2022-09-21T09:21:01;102077.44;;;13.44;58.30
71476;BME280;59286;59.274;17.974;2022-09-21T09:23:31;102085.44;;;13.63;57.87
71476;BME280;59286;59.274;17.974;2022-09-21T09:26:04;102079.53;;;13.71;58.02
71476;BME280;59286;59.274;17.974;2022-09-21T09:28:58;102085.50;;;13.81;58.98
71476;BME280;59286;59.274;17.974;2022-09-21T09:31:33;102056.44;;;13.63;58.33
71476;BME280;59286;59.274;17.974;2022-09-21T09:36:46;102088.44;;;13.80;57.32
71476;BME280;59286;59.274;17.974;2022-09-21T09:39:14;102081.47;;;13.89;58.73
71476;BME280;59286;59.274;17.974;2022-09-21T09:52:25;102089.50;;;14.02;55.92
71476;BME280;59286;59.274;17.974;2022-09-21T09:54:50;102066.69;;;13.93;57.24
71476;BME280;59286;59.274;17.974;2022-09-21T09:57:25;102081.75;;;14.11;54.91
71476;BME280;59286;59.274;17.974;2022-09-21T09:59:54;102079.69;;;14.08;53.75
71476;BME280;59286;59.274;17.974;2022-09-21T10:02:25;102057.13;;;13.97;53.64
71476;BME280;59286;59.274;17.974;2022-09-21T10:05:02;102089.31;;;13.94;54.02
71476;BME280;59286;59.274;17.974;2022-09-21T10:09:58;102090.69;;;13.63;55.22
71476;BME280;59286;59.274;17.974;2022-09-21T10:12:24;102080.31;;;13.71;55.00
71476;BME280;59286;59.274;17.974;2022-09-21T10:14:53;102098.25;;;13.98;56.49
71476;BME280;59286;59.274;17.974;2022-09-21T10:17:20;102087.41;;;14.23;53.40
71476;BME280;59286;59.274;17.974;2022-09-21T10:19:47;102068.94;;;14.28;50.49
71476;BME280;59286;59.274;17.974;2022-09-21T10:22:17;102092.50;;;14.43;52.45
71476;BME280;59286;59.274;17.974;2022-09-21T10:24:48;102082.94;;;14.47;52.22
71476;BME280;59286;59.274;17.974;2022-09-21T10:27:26;102091.81;;;14.56;52.23
71476;BME280;59286;59.274;17.974;2022-09-21T10:29:53;102097.13;;;14.51;53.80
71476;BME280;59286;59.274;17.974;2022-09-21T10:32:28;102089.94;;;14.56;54.38
71476;BME280;59286;59.274;17.974;2022-09-21T10:37:39;102073.53;;;14.60;51.58
71476;BME280;59286;59.274;17.974;2022-09-21T10:40:25;102046.50;;;14.25;53.86
71476;BME280;59286;59.274;17.974;2022-09-21T10:42:56;102090.69;;;14.15;54.11
71476;BME280;59286;59.274;17.974;2022-09-21T10:45:25;102065.66;;;13.89;55.90
71476;BME280;59286;59.274;17.974;2022-09-21T10:48:17;102092.31;;;13.87;55.02
71476;BME280;59286;59.274;17.974;2022-09-21T10:50:47;102094.25;;;13.77;55.45
71476;BME280;59286;59.274;17.974;2022-09-21T10:53:22;102090.06;;;13.71;56.29
71476;BME280;59286;59.274;17.974;2022-09-21T10:56:03;102074.88;;;13.63;57.11
71476;BME280;59286;59.274;17.974;2022-09-21T10:58:30;102098.53;;;13.68;57.65
71476;BME280;59286;59.274;17.974;2022-09-21T11:01:09;102089.16;;;13.56;57.14
71476;BME280;59286;59.274;17.974;2022-09-21T11:03:56;102093.50;;;13.42;56.87
71476;BME280;59286;59.274;17.974;2022-09-21T11:06:37;102098.84;;;13.32;56.54
71476;BME280;59286;59.274;17.974;2022-09-21T11:09:13;102097.28;;;13.31;58.79
71476;BME280;59286;59.274;17.974;2022-09-21T11:14:28;102071.50;;;13.28;54.77
71476;BME280;59286;59.274;17.974;2022-09-21T11:17:02;102091.06;;;13.51;55.96
71476;BME280;59286;59.274;17.974;2022-09-21T11:19:34;102088.66;;;13.54;52.12
71476;BME280;59286;59.274;17.974;2022-09-21T11:22:11;102051.81;;;13.49;53.00
71476;BME280;59286;59.274;17.974;2022-09-21T11:24:54;102077.91;;;13.75;51.57
71476;BME280;59286;59.274;17.974;2022-09-21T11:27:26;102078.06;;;13.88;51.43
71476;BME280;59286;59.274;17.974;2022-09-21T11:30:11;102069.69;;;14.05;51.44
71476;BME280;59286;59.274;17.974;2022-09-21T11:33:02;102074.88;;;14.15;52.00
71476;BME280;59286;59.274;17.974;2022-09-21T11:38:42;102068.69;;;14.48;49.83
71476;BME280;59286;59.274;17.974;2022-09-21T11:46:37;102057.75;;;14.36;52.27
71476;BME280;59286;59.274;17.974;2022-09-21T11:54:57;102078.56;;;14.14;52.06
71476;BME280;59286;59.274;17.974;2022-09-21T11:57:44;102064.31;;;14.15;49.43
71476;BME280;59286;59.274;17.974;2022-09-21T12:00:20;102057.75;;;14.12;50.75
71476;BME280;59286;59.274;17.974;2022-09-21T12:13:37;102075.41;;;13.65;50.79
71476;BME280;59286;59.274;17.974;2022-09-21T12:21:32;102065.81;;;13.11;51.66
71476;BME280;59286;59.274;17.974;2022-09-21T12:24:53;102078.44;;;13.14;53.06
71476;BME280;59286;59.274;17.974;2022-09-21T12:27:03;102036.56;;;12.74;53.14
71476;BME280;59286;59.274;17.974;2022-09-21T12:29:41;102075.88;;;13.04;53.60
71476;BME280;59286;59.274;17.974;2022-09-21T12:32:35;102069.09;;;12.93;55.92
71476;BME280;59286;59.274;17.974;2022-09-21T12:35:05;102083.00;;;12.99;55.37
71476;BME280;59286;59.274;17.974;2022-09-21T12:37:40;102065.97;;;12.86;56.50
71476;BME280;59286;59.274;17.974;2022-09-21T12:42:59;102066.13;;;12.61;58.83
71476;BME280;59286;59.274;17.974;2022-09-21T12:45:41;102049.88;;;12.49;58.55
71476;BME280;59286;59.274;17.974;2022-09-21T12:50:48;102078.50;;;12.55;58.76
71476;BME280;59286;59.274;17.974;2022-09-21T12:53:23;102073.56;;;12.49;59.85
71476;BME280;59286;59.274;17.974;2022-09-21T12:58:26;102067.97;;;12.55;58.65
71476;BME280;59286;59.274;17.974;2022-09-21T13:09:03;102080.50;;;12.79;60.59
71476;BME280;59286;59.274;17.974;2022-09-21T13:11:31;102076.03;;;12.79;61.01
71476;BME280;59286;59.274;17.974;2022-09-21T13:14:02;102068.13;;;12.79;61.61
71476;BME280;59286;59.274;17.974;2022-09-21T13:16:32;102080.22;;;12.80;61.28
71476;BME280;59286;59.274;17.974;2022-09-21T13:19:01;102073.69;;;12.73;60.42
71476;BME280;59286;59.274;17.974;2022-09-21T13:21:30;102059.78;;;12.67;60.91
71476;BME280;59286;59.274;17.974;2022-09-21T13:24:00;102075.22;;;12.79;60.71
71476;BME280;59286;59.274;17.974;2022-09-21T13:26:50;102058.13;;;12.76;57.95
71476;BME280;59286;59.274;17.974;2022-09-21T13:34:42;102072.13;;;13.15;55.57
71476;BME280;59286;59.274;17.974;2022-09-21T13:47:46;102056.25;;;13.25;51.69
71476;BME280;59286;59.274;17.974;2022-09-21T13:50:29;102071.41;;;13.38;53.13
71476;BME280;59286;59.274;17.974;2022-09-21T13:53:01;102072.47;;;13.37;52.96
71476;BME280;59286;59.274;17.974;2022-09-21T13:55:33;102059.94;;;13.24;51.09
71476;BME280;59286;59.274;17.974;2022-09-21T13:58:02;102059.34;;;13.32;49.05
71476;BME280;59286;59.274;17.974;2022-09-21T14:00:54;102071.94;;;13.40;49.47
71476;BME280;59286;59.274;17.974;2022-09-21T14:03:34;102062.66;;;13.43;49.97
71476;BME280;59286;59.274;17.974;2022-09-21T14:06:08;102065.06;;;13.44;50.51
71476;BME280;59286;59.274;17.974;2022-09-21T14:08:38;102055.09;;;13.36;52.21
71476;BME280;59286;59.274;17.974;2022-09-21T14:11:19;102069.28;;;13.40;53.60
71476;BME280;59286;59.274;17.974;2022-09-21T14:14:07;102052.00;;;13.29;52.30
71476;BME280;59286;59.274;17.974;2022-09-21T14:19:03;102069.88;;;13.32;53.05
71476;BME280;59286;59.274;17.974;2022-09-21T14:24:48;102067.47;;;13.36;52.04
71476;BME280;59286;59.274;17.974;2022-09-21T14:27:31;102061.97;;;13.32;50.58
71476;BME280;59286;59.274;17.974;2022-09-21T14:30:03;102019.00;;;13.08;51.92
71476;BME280;59286;59.274;17.974;2022-09-21T14:32:35;102053.63;;;13.20;53.04
71476;BME280;59286;59.274;17.974;2022-09-21T14:35:10;102051.28;;;13.19;54.38
71476;BME280;59286;59.274;17.974;2022-09-21T14:37:45;102058.31;;;13.28;53.06
71476;BME280;59286;59.274;17.974;2022-09-21T14:40:21;102029.75;;;13.12;53.07
71476;BME280;59286;59.274;17.974;2022-09-21T14:42:49;102058.31;;;13.28;52.34
71476;BME280;59286;59.274;17.974;2022-09-21T14:45:21;102058.84;;;13.30;52.83
71476;BME280;59286;59.274;17.974;2022-09-21T14:58:46;102036.28;;;13.19;52.25
71476;BME280;59286;59.274;17.974;2022-09-21T15:03:56;102037.38;;;13.13;52.00
71476;BME280;59286;59.274;17.974;2022-09-21T15:06:33;102063.88;;;13.27;50.41
71476;BME280;59286;59.274;17.974;2022-09-21T15:10:36;102064.16;;;13.25;49.53
71476;BME280;59286;59.274;17.974;2022-09-21T15:16:07;102060.78;;;13.15;50.73
71476;BME280;59286;59.274;17.974;2022-09-21T15:18:40;102058.19;;;13.10;52.08
71476;BME280;59286;59.274;17.974;2022-09-21T15:21:20;102061.41;;;13.07;50.59
71476;BME280;59286;59.274;17.974;2022-09-21T15:23:46;102059.53;;;13.07;51.74
71476;BME280;59286;59.274;17.974;2022-09-21T15:26:17;102059.53;;;13.07;53.50
71476;BME280;59286;59.274;17.974;2022-09-21T15:28:48;102059.59;;;12.97;53.11
71476;BME280;59286;59.274;17.974;2022-09-21T15:31:16;102045.16;;;12.90;53.37
71476;BME280;59286;59.274;17.974;2022-09-21T15:33:44;102049.13;;;12.87;53.32
71476;BME280;59286;59.274;17.974;2022-09-21T15:36:25;102069.88;;;12.94;52.32
71476;BME280;59286;59.274;17.974;2022-09-21T15:38:52;102053.88;;;12.85;52.40